Aviation Digital Data Service (ADDS)

Output produced by METARs form (1642 UTC 25 October 2014)
found at http://aviationweather.gov/adds/metars/
 
KBPT 251120Z 2512/2612 02005KT P6SM SKC